createdAt,value
2023-05-07T00:02:10.578Z,100588.00
2023-05-07T00:04:37.289Z,100599.97
2023-05-07T00:07:04.433Z,100589.13
2023-05-07T00:09:34.488Z,100588.66
2023-05-07T00:12:04.146Z,100583.38
2023-05-07T00:14:30.777Z,100578.16
2023-05-07T00:16:57.546Z,100585.19
2023-05-07T00:19:24.385Z,100586.84
2023-05-07T00:21:54.096Z,100590.94
2023-05-07T00:24:21.003Z,100589.13
2023-05-07T00:26:52.617Z,100593.72
2023-05-07T00:29:19.807Z,100590.78
2023-05-07T00:31:47.707Z,100590.94
2023-05-07T00:34:14.416Z,100588.66
2023-05-07T00:36:41.070Z,100585.84
2023-05-07T00:39:12.546Z,100584.34
2023-05-07T00:41:39.178Z,100589.31
2023-05-07T00:44:05.870Z,100585.00
2023-05-07T00:46:33.995Z,100582.06
2023-05-07T00:49:01.559Z,100572.06
2023-05-07T00:51:29.208Z,100578.16
2023-05-07T00:53:56.261Z,100584.69
2023-05-07T00:56:22.989Z,100577.50
2023-05-07T00:58:50.453Z,100585.88
2023-05-07T01:01:17.201Z,100580.59
2023-05-07T01:03:44.262Z,100581.25
2023-05-07T01:06:12.763Z,100586.53
2023-05-07T01:08:42.147Z,100585.69
2023-05-07T01:11:10.060Z,100584.53
2023-05-07T01:13:40.016Z,100580.94
2023-05-07T01:16:07.672Z,100579.94
2023-05-07T01:18:36.198Z,100580.59
2023-05-07T01:21:05.788Z,100583.88
2023-05-07T01:23:34.740Z,100570.25
2023-05-07T01:26:01.488Z,100572.72
2023-05-07T01:28:28.344Z,100581.59
2023-05-07T01:31:01.212Z,100575.00
2023-05-07T01:33:32.783Z,100578.47
2023-05-07T01:36:00.490Z,100576.63
2023-05-07T01:38:28.619Z,100574.50
2023-05-07T01:40:56.596Z,100573.38
2023-05-07T01:43:23.322Z,100572.06
2023-05-07T01:45:50.855Z,100566.78
2023-05-07T01:48:18.915Z,100571.56
2023-05-07T01:50:48.250Z,100575.16
2023-05-07T01:53:24.087Z,100574.50
2023-05-07T01:55:51.018Z,100573.84
2023-05-07T01:58:17.674Z,100574.03
2023-05-07T02:00:44.376Z,100584.03
2023-05-07T02:03:11.176Z,100585.03
2023-05-07T02:05:38.261Z,100577.78
2023-05-07T02:08:08.060Z,100582.25
2023-05-07T02:10:34.874Z,100580.59
2023-05-07T02:13:01.541Z,100585.50
2023-05-07T02:15:28.441Z,100575.81
2023-05-07T02:18:01.142Z,100583.72
2023-05-07T02:20:27.959Z,100581.75
2023-05-07T02:22:54.608Z,100579.63
2023-05-07T02:25:21.265Z,100578.47
2023-05-07T02:27:47.884Z,100577.28
2023-05-07T02:30:17.882Z,100572.38
2023-05-07T02:32:44.665Z,100567.44
2023-05-07T02:35:13.822Z,100566.31
2023-05-07T02:37:40.514Z,100572.22
2023-05-07T02:40:07.940Z,100576.47
2023-05-07T02:42:34.818Z,100576.00
2023-05-07T02:45:04.321Z,100581.09
2023-05-07T02:47:30.941Z,100578.81
2023-05-07T02:49:57.764Z,100583.72
2023-05-07T02:52:24.447Z,100578.81
2023-05-07T02:54:51.074Z,100587.19
2023-05-07T02:57:17.726Z,100590.44
2023-05-07T02:59:44.577Z,100592.09
2023-05-07T03:02:11.378Z,100592.09
2023-05-07T03:04:38.685Z,100585.50
2023-05-07T03:07:05.351Z,100594.41
2023-05-07T03:09:32.107Z,100598.34
2023-05-07T03:11:58.805Z,100593.91
2023-05-07T03:14:28.527Z,100605.06
2023-05-07T03:16:55.263Z,100609.50
2023-05-07T03:19:21.934Z,100611.81
2023-05-07T03:21:48.599Z,100609.31
2023-05-07T03:24:15.244Z,100618.03
2023-05-07T03:26:41.919Z,100616.38
2023-05-07T03:29:10.421Z,100625.91
2023-05-07T03:31:37.211Z,100622.63
2023-05-07T03:34:05.557Z,100624.94
2023-05-07T03:36:38.101Z,100616.56
2023-05-07T03:39:04.763Z,100623.63
2023-05-07T03:41:34.250Z,100622.59
2023-05-07T03:44:01.032Z,100631.66
2023-05-07T03:46:27.949Z,100624.44
2023-05-07T03:48:54.747Z,100630.50
2023-05-07T03:51:21.489Z,100644.13
2023-05-07T03:53:48.084Z,100647.25
2023-05-07T03:56:14.812Z,100637.38
2023-05-07T03:58:43.507Z,100632.66
2023-05-07T04:01:10.207Z,100636.25
2023-05-07T04:03:36.906Z,100643.16
2023-05-07T04:06:06.863Z,100641.19
2023-05-07T04:08:33.496Z,100645.97
2023-05-07T04:11:01.193Z,100653.16
2023-05-07T04:13:28.388Z,100649.72
2023-05-07T04:15:56.617Z,100655.00
2023-05-07T04:18:23.332Z,100653.84
2023-05-07T04:20:50.204Z,100660.25
2023-05-07T04:23:17.410Z,100655.16
2023-05-07T04:25:44.336Z,100652.88
2023-05-07T04:28:10.952Z,100648.91
2023-05-07T04:30:37.622Z,100656.97
2023-05-07T04:33:04.536Z,100657.28
2023-05-07T04:35:31.553Z,100657.28
2023-05-07T04:37:58.160Z,100668.47
2023-05-07T04:40:25.004Z,100666.47
2023-05-07T04:42:51.724Z,100667.50
2023-05-07T04:45:18.514Z,100668.31
2023-05-07T04:47:45.264Z,100667.81
2023-05-07T04:50:12.173Z,100664.34
2023-05-07T04:52:38.986Z,100665.38
2023-05-07T04:55:06.163Z,100666.34
2023-05-07T04:57:32.773Z,100666.34
2023-05-07T04:59:59.529Z,100658.47
2023-05-07T05:02:28.945Z,100667.66
2023-05-07T05:04:55.600Z,100660.25
2023-05-07T05:07:25.268Z,100658.47
2023-05-07T05:09:52.051Z,100665.41
2023-05-07T05:12:18.855Z,100665.38
2023-05-07T05:14:45.497Z,100657.50
2023-05-07T05:17:12.155Z,100670.63
2023-05-07T05:19:39.909Z,100669.97
2023-05-07T05:22:10.784Z,100671.75
2023-05-07T05:24:37.509Z,100668.78
2023-05-07T05:27:04.365Z,100677.81
2023-05-07T05:29:31.083Z,100677.00
2023-05-07T05:31:59.450Z,100672.56
2023-05-07T05:34:26.200Z,100670.41
2023-05-07T05:36:53.168Z,100680.03
2023-05-07T05:39:19.832Z,100683.88
2023-05-07T05:41:46.670Z,100682.06
2023-05-07T05:44:19.613Z,100691.81
2023-05-07T05:46:46.451Z,100692.78
2023-05-07T05:49:13.130Z,100693.97
2023-05-07T05:51:39.928Z,100690.00
2023-05-07T05:54:06.519Z,100695.13
2023-05-07T05:56:36.177Z,100696.59
2023-05-07T05:59:02.994Z,100712.06
2023-05-07T06:01:29.912Z,100736.88
2023-05-07T06:03:57.506Z,100751.34
2023-05-07T06:06:24.252Z,100752.53
2023-05-07T06:08:50.903Z,100744.28
2023-05-07T06:11:17.685Z,100741.00
2023-05-07T06:13:46.634Z,100740.03
2023-05-07T06:16:13.413Z,100736.56
2023-05-07T06:18:40.302Z,100739.50
2023-05-07T06:21:06.908Z,100734.91
2023-05-07T06:23:43.636Z,100734.72
2023-05-07T06:26:10.297Z,100736.06
2023-05-07T06:28:37.031Z,100728.84
2023-05-07T06:31:17.861Z,100731.91
2023-05-07T06:33:48.090Z,100737.63
2023-05-07T06:36:14.870Z,100743.56
2023-05-07T06:38:41.577Z,100739.59
2023-05-07T06:41:08.633Z,100734.00
2023-05-07T06:43:38.158Z,100742.88
2023-05-07T06:46:05.035Z,100732.69
2023-05-07T06:48:31.815Z,100725.94
2023-05-07T06:50:58.564Z,100724.00
2023-05-07T06:53:25.450Z,100720.84
2023-05-07T06:55:52.108Z,100718.41
2023-05-07T06:58:18.915Z,100714.94
2023-05-07T07:00:45.650Z,100723.34
2023-05-07T07:03:12.620Z,100719.22
2023-05-07T07:05:39.409Z,100725.47
2023-05-07T07:08:06.262Z,100723.00
2023-05-07T07:10:32.917Z,100712.34
2023-05-07T07:12:59.678Z,100719.25
2023-05-07T07:15:28.003Z,100718.91
2023-05-07T07:17:55.936Z,100720.72
2023-05-07T07:20:25.584Z,100726.31
2023-05-07T07:22:52.271Z,100732.88
2023-05-07T07:25:21.013Z,100727.69
2023-05-07T07:27:47.890Z,100723.91
2023-05-07T07:30:14.700Z,100728.19
2023-05-07T07:32:41.509Z,100729.00
2023-05-07T07:35:08.852Z,100724.06
2023-05-07T07:37:38.570Z,100726.31
2023-05-07T07:40:08.985Z,100723.03
2023-05-07T07:42:37.047Z,100725.75
2023-05-07T07:45:04.186Z,100722.41
2023-05-07T07:47:30.813Z,100732.97
2023-05-07T07:49:57.620Z,100725.06
2023-05-07T07:52:24.271Z,100723.25
2023-05-07T07:54:50.897Z,100729.25
2023-05-07T07:57:17.546Z,100730.81
2023-05-07T07:59:44.208Z,100727.59
2023-05-07T08:02:10.893Z,100721.09
2023-05-07T08:04:37.786Z,100725.03
2023-05-07T08:07:09.803Z,100713.75
2023-05-07T08:09:36.667Z,100715.22
2023-05-07T08:12:03.636Z,100717.69
2023-05-07T08:14:30.233Z,100714.25
2023-05-07T08:16:57.069Z,100728.81
2023-05-07T08:19:24.166Z,100727.06
2023-05-07T08:21:50.811Z,100725.56
2023-05-07T08:24:18.022Z,100720.16
2023-05-07T08:26:48.784Z,100721.91
2023-05-07T08:29:15.588Z,100726.47
2023-05-07T08:31:42.261Z,100731.75
2023-05-07T08:34:09.925Z,100722.63
2023-05-07T08:36:37.130Z,100729.28
2023-05-07T08:39:03.800Z,100714.09
2023-05-07T08:41:30.806Z,100723.22
2023-05-07T08:43:59.908Z,100720.88
2023-05-07T08:46:29.877Z,100724.84
2023-05-07T08:48:56.680Z,100722.06
2023-05-07T08:51:23.744Z,100717.81
2023-05-07T08:53:51.277Z,100713.22
2023-05-07T08:56:19.452Z,100713.59
2023-05-07T08:58:47.087Z,100694.19
2023-05-07T09:01:18.199Z,100704.38
2023-05-07T09:03:48.347Z,100698.47
2023-05-07T09:06:16.224Z,100702.53
2023-05-07T09:08:50.649Z,100691.16
2023-05-07T09:11:17.403Z,100696.09
2023-05-07T09:13:44.115Z,100700.78
2023-05-07T09:16:12.461Z,100698.63
2023-05-07T09:18:45.891Z,100695.66
2023-05-07T09:21:16.971Z,100702.31
2023-05-07T09:23:43.952Z,100699.16
2023-05-07T09:26:14.100Z,100701.34
2023-05-07T09:28:41.835Z,100699.13
2023-05-07T09:31:09.603Z,100711.88
2023-05-07T09:33:36.344Z,100711.00
2023-05-07T09:36:07.775Z,100713.75
2023-05-07T09:38:40.706Z,100693.25
2023-05-07T09:41:08.579Z,100696.56
2023-05-07T09:43:36.769Z,100707.44
2023-05-07T09:46:28.657Z,100713.41
2023-05-07T09:48:58.769Z,100715.13
2023-05-07T09:51:25.356Z,100712.78
2023-05-07T09:53:56.767Z,100711.22
2023-05-07T09:56:23.992Z,100717.06
2023-05-07T09:58:53.734Z,100714.31
2023-05-07T10:01:28.115Z,100719.59
2023-05-07T10:03:56.190Z,100706.28
2023-05-07T10:06:23.900Z,100702.44
2023-05-07T10:08:52.201Z,100692.63
2023-05-07T10:11:19.436Z,100693.66
2023-05-07T10:13:47.544Z,100688.91
2023-05-07T10:16:15.395Z,100694.50
2023-05-07T10:18:44.288Z,100683.13
2023-05-07T10:21:24.091Z,100690.03
2023-05-07T10:23:54.609Z,100682.22
2023-05-07T10:26:26.455Z,100679.34
2023-05-07T10:29:00.693Z,100682.38
2023-05-07T10:31:33.545Z,100678.81
2023-05-07T10:34:02.123Z,100685.94
2023-05-07T10:36:29.195Z,100678.22
2023-05-07T10:38:56.370Z,100682.84
2023-05-07T10:41:23.084Z,100673.78
2023-05-07T10:43:55.659Z,100679.50
2023-05-07T10:46:23.700Z,100677.00
2023-05-07T10:49:02.728Z,100676.78
2023-05-07T10:51:30.336Z,100659.75
2023-05-07T10:54:11.981Z,100671.38
2023-05-07T10:56:42.440Z,100678.06
2023-05-07T10:59:21.254Z,100666.25
2023-05-07T11:02:06.775Z,100663.81
2023-05-07T11:04:35.420Z,100652.69
2023-05-07T11:07:08.157Z,100651.13
2023-05-07T11:10:07.447Z,100662.00
2023-05-07T11:12:36.890Z,100653.97
2023-05-07T11:15:11.002Z,100653.16
2023-05-07T11:17:56.268Z,100650.13
2023-05-07T11:20:48.752Z,100651.41
2023-05-07T11:23:36.565Z,100659.22
2023-05-07T11:26:09.503Z,100659.66
2023-05-07T11:28:43.740Z,100664.53
2023-05-07T11:31:11.824Z,100651.25
2023-05-07T11:33:39.728Z,100652.44
2023-05-07T11:36:12.056Z,100654.38
2023-05-07T11:38:39.428Z,100644.28
2023-05-07T11:41:06.371Z,100644.38
2023-05-07T11:43:34.024Z,100644.31
2023-05-07T11:46:09.312Z,100638.94
2023-05-07T11:48:36.385Z,100644.59
2023-05-07T11:51:05.525Z,100644.31
2023-05-07T11:53:42.934Z,100644.97
2023-05-07T11:56:11.275Z,100643.13
2023-05-07T11:58:38.629Z,100638.28
2023-05-07T12:01:08.315Z,100630.47
2023-05-07T12:03:36.433Z,100634.94
2023-05-07T12:06:03.707Z,100628.78
2023-05-07T12:08:30.875Z,100623.72
2023-05-07T12:10:57.981Z,100615.13
2023-05-07T12:13:27.796Z,100617.94
2023-05-07T12:15:56.452Z,100626.56
2023-05-07T12:18:24.089Z,100618.03
2023-05-07T12:20:53.729Z,100617.19
2023-05-07T12:23:21.458Z,100613.63
2023-05-07T12:25:49.225Z,100604.97
2023-05-07T12:28:17.493Z,100591.28
2023-05-07T12:30:49.410Z,100604.75
2023-05-07T12:33:20.627Z,100598.78
2023-05-07T12:35:48.926Z,100593.47
2023-05-07T12:38:18.220Z,100592.63
2023-05-07T12:40:52.290Z,100597.16
2023-05-07T12:43:32.206Z,100595.59
2023-05-07T12:46:02.195Z,100600.34
2023-05-07T12:48:29.245Z,100594.50
2023-05-07T12:51:00.664Z,100594.63
2023-05-07T12:53:29.474Z,100604.59
2023-05-07T12:55:58.227Z,100598.72
2023-05-07T12:58:34.119Z,100593.84
2023-05-07T13:01:06.804Z,100593.56
2023-05-07T13:03:40.026Z,100596.22
2023-05-07T13:06:11.452Z,100592.13
2023-05-07T13:08:48.372Z,100587.38
2023-05-07T13:11:15.051Z,100587.84
2023-05-07T13:13:42.849Z,100589.13
2023-05-07T13:16:11.670Z,100592.66
2023-05-07T13:18:40.667Z,100580.84
2023-05-07T13:21:07.648Z,100585.38
2023-05-07T13:23:35.079Z,100584.31
2023-05-07T13:26:06.259Z,100577.84
2023-05-07T13:28:38.260Z,100581.84
2023-05-07T13:31:05.034Z,100585.69
2023-05-07T13:33:31.743Z,100580.31
2023-05-07T13:35:58.806Z,100574.66
2023-05-07T13:38:25.677Z,100572.59
2023-05-07T13:40:55.472Z,100581.28
2023-05-07T13:43:24.859Z,100568.75
2023-05-07T13:45:54.699Z,100569.81
2023-05-07T13:48:21.449Z,100574.28
2023-05-07T13:50:48.038Z,100564.31
2023-05-07T13:53:15.133Z,100552.88
2023-05-07T13:55:41.748Z,100556.78
2023-05-07T13:58:08.386Z,100550.69
2023-05-07T14:00:39.086Z,100552.16
2023-05-07T14:03:06.392Z,100554.78
2023-05-07T14:05:33.092Z,100561.47
2023-05-07T14:07:59.782Z,100562.47
2023-05-07T14:10:27.601Z,100560.91
2023-05-07T14:12:54.389Z,100563.53
2023-05-07T14:15:21.057Z,100568.13
2023-05-07T14:17:47.861Z,100557.50
2023-05-07T14:20:14.905Z,100566.84
2023-05-07T14:22:41.888Z,100575.78
2023-05-07T14:25:09.004Z,100576.53
2023-05-07T14:27:35.788Z,100581.50
2023-05-07T14:30:02.911Z,100576.09
2023-05-07T14:32:29.624Z,100592.13
2023-05-07T14:34:56.311Z,100589.56
2023-05-07T14:37:22.967Z,100582.59
2023-05-07T14:39:50.697Z,100590.06
2023-05-07T14:42:22.655Z,100585.84
2023-05-07T14:44:49.584Z,100595.31
2023-05-07T14:47:17.294Z,100597.66
2023-05-07T14:49:45.178Z,100604.03
2023-05-07T14:52:15.352Z,100612.59
2023-05-07T14:54:46.243Z,100611.06
2023-05-07T14:57:16.128Z,100602.19
2023-05-07T14:59:43.329Z,100614.53
2023-05-07T15:02:12.470Z,100614.19
2023-05-07T15:04:39.769Z,100611.13
2023-05-07T15:07:06.489Z,100608.28
2023-05-07T15:09:33.101Z,100604.34
2023-05-07T15:11:59.717Z,100609.13
2023-05-07T15:14:26.409Z,100617.38
2023-05-07T15:16:55.224Z,100617.75
2023-05-07T15:19:22.072Z,100623.28
2023-05-07T15:21:48.738Z,100619.50
2023-05-07T15:24:15.681Z,100623.25
2023-05-07T15:26:42.287Z,100634.41
2023-05-07T15:29:09.313Z,100637.78
2023-05-07T15:31:36.072Z,100639.50
2023-05-07T15:34:02.893Z,100630.00
2023-05-07T15:36:29.798Z,100627.59
2023-05-07T15:38:59.693Z,100636.22
2023-05-07T15:41:26.383Z,100647.75
2023-05-07T15:43:55.868Z,100650.78
2023-05-07T15:46:27.099Z,100647.38
2023-05-07T15:48:54.647Z,100653.22
2023-05-07T15:51:27.810Z,100636.69
2023-05-07T15:53:54.503Z,100657.75
2023-05-07T15:56:21.230Z,100675.78
2023-05-07T15:58:50.267Z,100681.34
2023-05-07T16:01:17.119Z,100658.38
2023-05-07T16:03:44.034Z,100663.22
2023-05-07T16:06:11.230Z,100654.81
2023-05-07T16:08:38.040Z,100665.53
2023-05-07T16:11:04.730Z,100666.44
2023-05-07T16:13:31.310Z,100688.56
2023-05-07T16:15:59.451Z,100693.38
2023-05-07T16:18:26.176Z,100690.25
2023-05-07T16:20:55.549Z,100690.41
2023-05-07T16:23:24.834Z,100695.03
2023-05-07T16:25:51.590Z,100695.94
2023-05-07T16:28:18.206Z,100692.34
2023-05-07T16:30:44.860Z,100689.41
2023-05-07T16:33:12.894Z,100699.94
2023-05-07T16:35:51.305Z,100695.69
2023-05-07T16:38:17.984Z,100696.19
2023-05-07T16:40:44.685Z,100689.97
2023-05-07T16:43:11.449Z,100702.03
2023-05-07T16:45:38.089Z,100696.63
2023-05-07T16:48:05.539Z,100705.16
2023-05-07T16:50:32.290Z,100700.56
2023-05-07T16:52:58.908Z,100697.25
2023-05-07T16:55:25.540Z,100705.94
2023-05-07T16:57:52.394Z,100710.22
2023-05-07T17:00:19.273Z,100709.19
2023-05-07T17:02:46.067Z,100699.00
2023-05-07T17:05:12.988Z,100700.06
2023-05-07T17:07:40.105Z,100694.31
2023-05-07T17:10:07.339Z,100704.53
2023-05-07T17:12:33.982Z,100707.13
2023-05-07T17:15:00.821Z,100719.75
2023-05-07T17:17:27.442Z,100709.34
2023-05-07T17:19:54.151Z,100715.66
2023-05-07T17:22:20.917Z,100702.84
2023-05-07T17:24:47.796Z,100715.81
2023-05-07T17:27:14.615Z,100721.22
2023-05-07T17:29:44.111Z,100719.38
2023-05-07T17:32:13.773Z,100723.44
2023-05-07T17:34:40.728Z,100728.78
2023-05-07T17:37:07.419Z,100720.53
2023-05-07T17:39:34.507Z,100736.81
2023-05-07T17:42:01.127Z,100733.13
2023-05-07T17:44:30.278Z,100737.69
2023-05-07T17:46:59.295Z,100747.03
2023-05-07T17:49:25.943Z,100746.44
2023-05-07T17:51:55.188Z,100740.59
2023-05-07T17:54:28.520Z,100752.81
2023-05-07T17:56:57.204Z,100753.31
2023-05-07T17:59:23.884Z,100769.91
2023-05-07T18:01:50.596Z,100765.03
2023-05-07T18:04:18.443Z,100769.59
2023-05-07T18:06:45.062Z,100776.06
2023-05-07T18:09:16.201Z,100780.81
2023-05-07T18:11:42.814Z,100786.06
2023-05-07T18:14:09.551Z,100786.78
2023-05-07T18:16:39.393Z,100796.56
2023-05-07T18:19:06.168Z,100785.63
2023-05-07T18:21:40.159Z,100795.13
2023-05-07T18:24:08.726Z,100807.88
2023-05-07T18:26:35.485Z,100808.31
2023-05-07T18:29:02.122Z,100807.50
2023-05-07T18:31:29.115Z,100804.97
2023-05-07T18:33:55.999Z,100803.91
2023-05-07T18:36:25.630Z,100813.69
2023-05-07T18:38:55.493Z,100810.47
2023-05-07T18:41:24.953Z,100829.56
2023-05-07T18:43:51.764Z,100821.31
2023-05-07T18:46:18.433Z,100843.53
2023-05-07T18:48:45.394Z,100838.75
2023-05-07T18:51:12.069Z,100844.91
2023-05-07T18:53:39.811Z,100850.00
2023-05-07T18:56:07.459Z,100856.34
2023-05-07T18:58:34.319Z,100865.22
2023-05-07T19:01:01.954Z,100864.13
2023-05-07T19:03:31.864Z,100865.31
2023-05-07T19:05:58.710Z,100880.94
2023-05-07T19:08:25.560Z,100892.59
2023-05-07T19:10:52.577Z,100891.53
2023-05-07T19:13:19.323Z,100880.66
2023-05-07T19:15:46.104Z,100885.22
2023-05-07T19:18:15.724Z,100891.88
2023-05-07T19:20:45.659Z,100882.19
2023-05-07T19:23:16.378Z,100890.06
2023-05-07T19:25:43.358Z,100887.53
2023-05-07T19:28:10.085Z,100896.97
2023-05-07T19:30:42.296Z,100901.34
2023-05-07T19:33:09.086Z,100898.34
2023-05-07T19:35:35.817Z,100906.72
2023-05-07T19:38:03.458Z,100912.91
2023-05-07T19:40:30.155Z,100895.53
2023-05-07T19:43:04.347Z,100903.59
2023-05-07T19:45:31.120Z,100894.84
2023-05-07T19:47:59.633Z,100902.03
2023-05-07T19:50:26.469Z,100890.34
2023-05-07T19:52:53.178Z,100891.59
2023-05-07T19:55:20.235Z,100890.13
2023-05-07T19:57:46.913Z,100904.81
2023-05-07T20:00:14.363Z,100896.22
2023-05-07T20:02:41.609Z,100915.66
2023-05-07T20:05:08.949Z,100909.91
2023-05-07T20:07:35.691Z,100921.31
2023-05-07T20:10:05.756Z,100921.94
2023-05-07T20:12:35.776Z,100930.25
2023-05-07T20:15:02.763Z,100936.69
2023-05-07T20:17:29.440Z,100938.41
2023-05-07T20:19:56.256Z,100942.78
2023-05-07T20:22:23.533Z,100937.06
2023-05-07T20:24:52.057Z,100937.13
2023-05-07T20:27:18.731Z,100940.72
2023-05-07T20:29:46.994Z,100934.63
2023-05-07T20:32:13.743Z,100949.81
2023-05-07T20:34:40.400Z,100950.69
2023-05-07T20:37:09.500Z,100957.81
2023-05-07T20:39:38.155Z,100964.31
2023-05-07T20:42:05.254Z,100975.19
2023-05-07T20:44:33.592Z,100966.31
2023-05-07T20:47:00.543Z,100963.03
2023-05-07T20:49:29.580Z,100973.81
2023-05-07T20:51:56.302Z,100971.66
2023-05-07T20:54:25.556Z,100966.59
2023-05-07T20:56:58.216Z,100975.81
2023-05-07T20:59:25.288Z,100973.03
2023-05-07T21:01:51.938Z,100985.00
2023-05-07T21:04:18.899Z,100977.25
2023-05-07T21:06:45.733Z,100983.34
2023-05-07T21:09:12.364Z,100986.16
2023-05-07T21:11:39.261Z,100982.53
2023-05-07T21:14:08.733Z,100999.16
2023-05-07T21:16:38.409Z,100991.38
2023-05-07T21:19:06.716Z,101003.28
2023-05-07T21:21:39.243Z,100991.66
2023-05-07T21:24:06.606Z,100994.47
2023-05-07T21:26:33.323Z,100992.53
2023-05-07T21:29:00.265Z,101003.59
2023-05-07T21:31:26.903Z,101007.25
2023-05-07T21:33:53.854Z,100986.75
2023-05-07T21:36:20.561Z,100996.19
2023-05-07T21:38:49.136Z,100994.53
2023-05-07T21:41:16.044Z,100989.00
2023-05-07T21:43:42.873Z,100992.34
2023-05-07T21:46:12.678Z,100995.94
2023-05-07T21:48:42.036Z,100998.97
2023-05-07T21:51:08.676Z,101007.84
2023-05-07T21:53:38.324Z,101009.50
2023-05-07T21:56:07.535Z,101002.88
2023-05-07T21:58:34.115Z,101010.03
2023-05-07T22:01:01.168Z,101002.88
2023-05-07T22:03:27.896Z,101009.50
2023-05-07T22:05:54.712Z,101002.88
2023-05-07T22:08:26.995Z,101006.19
2023-05-07T22:10:53.693Z,101002.59
2023-05-07T22:13:20.371Z,100994.00
2023-05-07T22:15:56.590Z,101002.34
2023-05-07T22:18:25.545Z,101008.13
2023-05-07T22:20:52.338Z,101001.75
2023-05-07T22:23:21.310Z,101005.09
2023-05-07T22:25:47.947Z,101014.50
2023-05-07T22:28:14.672Z,101012.28
2023-05-07T22:30:44.506Z,101010.03
2023-05-07T22:33:11.164Z,101012.81
2023-05-07T22:35:41.001Z,101004.25
2023-05-07T22:38:07.708Z,100994.56
2023-05-07T22:40:37.643Z,101006.75
2023-05-07T22:43:04.478Z,101005.63
2023-05-07T22:45:31.280Z,101006.72
2023-05-07T22:47:58.249Z,101002.28
2023-05-07T22:50:27.017Z,100995.13
2023-05-07T22:52:53.806Z,100993.44
2023-05-07T22:55:20.553Z,100993.19
2023-05-07T22:57:47.215Z,100990.13
2023-05-07T23:00:14.697Z,100982.38
2023-05-07T23:02:44.776Z,100985.19
2023-05-07T23:05:14.558Z,100994.53
2023-05-07T23:07:41.279Z,100989.56
2023-05-07T23:10:11.857Z,100992.31
2023-05-07T23:12:38.670Z,100984.03
2023-05-07T23:15:06.107Z,100979.03
2023-05-07T23:17:32.908Z,100975.75
2023-05-07T23:19:59.584Z,100989.56
2023-05-07T23:22:26.331Z,100979.03
2023-05-07T23:24:53.226Z,100979.06
2023-05-07T23:27:20.079Z,100979.03
2023-05-07T23:29:46.775Z,100981.56
2023-05-07T23:32:19.392Z,100973.28
2023-05-07T23:34:50.285Z,100972.41
2023-05-07T23:37:17.264Z,100972.69
2023-05-07T23:39:43.993Z,100972.66
2023-05-07T23:42:10.708Z,100967.09
2023-05-07T23:44:37.443Z,100968.75
2023-05-07T23:47:05.247Z,100967.09
2023-05-07T23:49:32.098Z,100964.84
2023-05-07T23:51:58.794Z,100961.84
2023-05-07T23:54:25.595Z,100965.97
2023-05-07T23:56:54.645Z,100977.28
2023-05-07T23:59:21.269Z,100980.06
